createdAt,value
2023-04-06T00:01:36.237Z,55.19
2023-04-06T00:03:39.546Z,55.33
2023-04-06T00:05:42.547Z,55.26
2023-04-06T00:07:45.452Z,55.56
2023-04-06T00:09:48.313Z,56.20
2023-04-06T00:11:51.362Z,56.33
2023-04-06T00:13:54.520Z,55.75
2023-04-06T00:15:57.517Z,55.70
2023-04-06T00:18:01.949Z,56.06
2023-04-06T00:20:05.409Z,56.45
2023-04-06T00:22:08.314Z,56.50
2023-04-06T00:24:11.487Z,56.17
2023-04-06T00:26:14.345Z,56.38
2023-04-06T00:28:26.216Z,56.37
2023-04-06T00:30:29.279Z,56.47
2023-04-06T00:32:32.506Z,55.78
2023-04-06T00:34:36.867Z,55.47
2023-04-06T00:36:39.799Z,56.14
2023-04-06T00:38:42.766Z,56.50
2023-04-06T00:40:46.307Z,56.51
2023-04-06T00:42:49.425Z,57.47
2023-04-06T00:44:52.486Z,57.47
2023-04-06T00:46:55.488Z,58.57
2023-04-06T00:48:59.080Z,59.00
2023-04-06T00:51:03.913Z,59.40
2023-04-06T00:53:06.832Z,59.62
2023-04-06T00:55:10.446Z,59.88
2023-04-06T00:57:17.914Z,59.66
2023-04-06T00:59:22.276Z,59.84
2023-04-06T01:01:26.151Z,59.50
2023-04-06T01:03:31.534Z,59.79
2023-04-06T01:05:35.615Z,59.39
2023-04-06T01:07:40.040Z,59.19
2023-04-06T01:09:47.737Z,59.17
2023-04-06T01:11:57.881Z,59.59
2023-04-06T01:14:05.996Z,59.01
2023-04-06T01:16:23.792Z,59.72
2023-04-06T01:18:40.170Z,59.65
2023-04-06T01:20:53.275Z,60.27
2023-04-06T01:22:58.408Z,60.25
2023-04-06T01:25:01.478Z,60.50
2023-04-06T01:27:13.386Z,60.34
2023-04-06T01:29:42.063Z,60.20
2023-04-06T01:31:46.732Z,59.99
2023-04-06T01:33:49.803Z,60.32
2023-04-06T01:35:56.001Z,59.81
2023-04-06T01:38:01.235Z,59.62
2023-04-06T01:40:09.630Z,60.11
2023-04-06T01:42:23.469Z,60.40
2023-04-06T01:44:27.364Z,60.16
2023-04-06T01:46:41.619Z,59.38
2023-04-06T01:48:46.228Z,59.64
2023-04-06T01:50:55.836Z,60.01
2023-04-06T01:53:06.242Z,59.99
2023-04-06T01:55:10.438Z,60.10
2023-04-06T01:57:31.800Z,60.07
2023-04-06T01:59:44.727Z,60.25
2023-04-06T02:01:55.827Z,60.21
2023-04-06T02:04:00.805Z,60.30
2023-04-06T02:06:04.711Z,60.59
2023-04-06T02:08:13.197Z,60.97
2023-04-06T02:10:16.973Z,61.41
2023-04-06T02:12:21.199Z,61.62
2023-04-06T02:14:27.573Z,61.70
2023-04-06T02:16:34.363Z,61.44
2023-04-06T02:18:37.255Z,61.98
2023-04-06T02:20:39.265Z,62.00
2023-04-06T02:22:42.297Z,61.84
2023-04-06T02:24:47.465Z,61.92
2023-04-06T02:26:50.921Z,61.62
2023-04-06T02:28:53.993Z,61.49
2023-04-06T02:30:56.972Z,61.16
2023-04-06T02:33:04.539Z,61.17
2023-04-06T02:35:15.827Z,61.15
2023-04-06T02:37:21.463Z,61.08
2023-04-06T02:39:24.286Z,61.96
2023-04-06T02:41:28.928Z,62.03
2023-04-06T02:43:35.968Z,61.81
2023-04-06T02:45:48.553Z,61.77
2023-04-06T02:47:52.312Z,61.54
2023-04-06T02:49:55.523Z,61.48
2023-04-06T02:51:58.534Z,61.08
2023-04-06T02:54:05.918Z,60.96
2023-04-06T02:56:09.361Z,60.96
2023-04-06T02:58:26.883Z,60.93
2023-04-06T03:00:32.891Z,60.80
2023-04-06T03:02:36.194Z,59.88
2023-04-06T03:04:45.114Z,60.92
2023-04-06T03:06:58.803Z,60.57
2023-04-06T03:09:11.400Z,60.54
2023-04-06T03:11:17.900Z,60.79
2023-04-06T03:13:21.307Z,61.07
2023-04-06T03:15:28.971Z,60.70
2023-04-06T03:17:41.354Z,60.84
2023-04-06T03:19:49.452Z,60.71
2023-04-06T03:21:52.680Z,60.72
2023-04-06T03:23:57.388Z,60.35
2023-04-06T03:26:00.348Z,60.49
2023-04-06T03:28:03.780Z,60.25
2023-04-06T03:30:09.610Z,60.28
2023-04-06T03:32:14.034Z,60.43
2023-04-06T03:34:18.295Z,60.18
2023-04-06T03:36:21.439Z,59.84
2023-04-06T03:38:24.574Z,60.01
2023-04-06T03:40:27.660Z,60.00
2023-04-06T03:42:30.857Z,59.91
2023-04-06T03:44:39.725Z,60.66
2023-04-06T03:46:43.353Z,60.55
2023-04-06T03:48:50.729Z,60.25
2023-04-06T03:50:55.224Z,60.46
2023-04-06T03:52:58.398Z,60.59
2023-04-06T03:55:01.401Z,60.61
2023-04-06T03:57:04.696Z,60.52
2023-04-06T03:59:07.967Z,60.99
2023-04-06T04:01:11.273Z,60.84
2023-04-06T04:03:14.347Z,60.41
2023-04-06T04:05:20.445Z,60.89
2023-04-06T04:07:23.502Z,60.20
2023-04-06T04:09:29.929Z,60.84
2023-04-06T04:11:33.086Z,60.94
2023-04-06T04:13:37.612Z,60.55
2023-04-06T04:15:42.285Z,61.57
2023-04-06T04:17:47.818Z,60.85
2023-04-06T04:19:51.016Z,60.82
2023-04-06T04:21:55.574Z,60.39
2023-04-06T04:24:08.051Z,60.46
2023-04-06T04:26:12.749Z,60.71
2023-04-06T04:28:16.861Z,59.98
2023-04-06T04:30:21.125Z,60.94
2023-04-06T04:32:24.373Z,60.41
2023-04-06T04:34:27.629Z,60.78
2023-04-06T04:36:30.824Z,60.59
2023-04-06T04:38:37.681Z,60.37
2023-04-06T04:40:40.736Z,60.94
2023-04-06T04:42:46.022Z,60.36
2023-04-06T04:44:55.362Z,59.86
2023-04-06T04:47:09.438Z,60.29
2023-04-06T04:49:22.466Z,60.36
2023-04-06T04:51:27.393Z,59.80
2023-04-06T04:53:45.785Z,60.13
2023-04-06T04:56:02.177Z,60.07
2023-04-06T04:58:05.519Z,59.66
2023-04-06T05:00:22.642Z,59.50
2023-04-06T05:02:26.722Z,59.55
2023-04-06T05:04:48.997Z,59.35
2023-04-06T05:07:05.769Z,59.21
2023-04-06T05:09:11.116Z,58.97
2023-04-06T05:11:17.061Z,58.48
2023-04-06T05:13:25.348Z,58.61
2023-04-06T05:15:30.344Z,58.75
2023-04-06T05:17:39.925Z,58.62
2023-04-06T05:19:44.624Z,58.25
2023-04-06T05:21:49.713Z,58.54
2023-04-06T05:23:52.733Z,58.87
2023-04-06T05:25:57.357Z,58.47
2023-04-06T05:28:00.440Z,58.80
2023-04-06T05:30:16.972Z,58.70
2023-04-06T05:32:25.587Z,58.85
2023-04-06T05:34:29.468Z,58.78
2023-04-06T05:36:33.971Z,59.19
2023-04-06T05:38:41.998Z,59.30
2023-04-06T05:40:54.544Z,59.55
2023-04-06T05:43:09.518Z,58.52
2023-04-06T05:45:17.835Z,58.93
2023-04-06T05:47:24.964Z,59.40
2023-04-06T05:49:39.209Z,59.35
2023-04-06T05:51:47.332Z,59.60
2023-04-06T05:53:50.394Z,59.51
2023-04-06T05:55:53.346Z,59.27
2023-04-06T05:57:57.837Z,59.38
2023-04-06T06:00:02.340Z,59.57
2023-04-06T06:02:15.449Z,59.66
2023-04-06T06:04:22.012Z,59.91
2023-04-06T06:06:29.772Z,59.61
2023-04-06T06:08:44.914Z,60.11
2023-04-06T06:10:51.818Z,60.48
2023-04-06T06:12:57.994Z,60.04
2023-04-06T06:15:02.750Z,60.67
2023-04-06T06:17:08.471Z,60.46
2023-04-06T06:19:11.934Z,60.01
2023-04-06T06:21:15.783Z,59.63
2023-04-06T06:23:18.791Z,59.91
2023-04-06T06:25:22.417Z,59.79
2023-04-06T06:27:27.144Z,59.50
2023-04-06T06:29:30.295Z,59.26
2023-04-06T06:31:34.766Z,58.71
2023-04-06T06:33:37.649Z,58.71
2023-04-06T06:35:40.789Z,57.55
2023-04-06T06:37:43.745Z,57.72
2023-04-06T06:39:50.240Z,57.89
2023-04-06T06:41:55.347Z,57.40
2023-04-06T06:44:17.648Z,56.70
2023-04-06T06:46:20.838Z,56.60
2023-04-06T06:48:25.136Z,56.63
2023-04-06T06:50:28.166Z,56.38
2023-04-06T06:52:31.055Z,56.48
2023-04-06T06:54:33.987Z,55.70
2023-04-06T06:56:38.851Z,54.87
2023-04-06T06:58:42.383Z,55.10
2023-04-06T07:00:45.971Z,54.89
2023-04-06T07:02:49.152Z,53.87
2023-04-06T07:04:53.627Z,54.05
2023-04-06T07:06:56.831Z,54.12
2023-04-06T07:08:59.745Z,54.80
2023-04-06T07:11:02.892Z,52.69
2023-04-06T07:13:05.829Z,52.86
2023-04-06T07:15:10.204Z,53.35
2023-04-06T07:17:13.273Z,53.30
2023-04-06T07:19:16.298Z,53.12
2023-04-06T07:21:21.176Z,52.97
2023-04-06T07:23:24.128Z,53.19
2023-04-06T07:25:27.035Z,52.98
2023-04-06T07:27:30.005Z,52.76
2023-04-06T07:29:33.057Z,52.53
2023-04-06T07:31:36.953Z,52.84
2023-04-06T07:33:40.988Z,52.76
2023-04-06T07:35:44.560Z,51.01
2023-04-06T07:37:49.537Z,51.38
2023-04-06T07:39:52.544Z,51.43
2023-04-06T07:41:55.439Z,51.43
2023-04-06T07:43:58.652Z,51.07
2023-04-06T07:46:01.981Z,51.03
2023-04-06T07:48:05.158Z,50.58
2023-04-06T07:50:10.077Z,50.95
2023-04-06T07:52:13.860Z,51.07
2023-04-06T07:54:19.590Z,50.21
2023-04-06T07:56:22.891Z,50.39
2023-04-06T07:58:25.856Z,50.74
2023-04-06T08:00:28.771Z,50.42
2023-04-06T08:02:31.887Z,50.45
2023-04-06T08:04:34.998Z,50.50
2023-04-06T08:06:38.311Z,50.64
2023-04-06T08:08:41.223Z,50.70
2023-04-06T08:10:45.578Z,50.33
2023-04-06T08:12:48.532Z,50.71
2023-04-06T08:14:51.435Z,49.91
2023-04-06T08:16:54.508Z,50.22
2023-04-06T08:18:57.456Z,49.65
2023-04-06T08:21:00.447Z,49.42
2023-04-06T08:23:03.456Z,49.94
2023-04-06T08:25:07.192Z,49.99
2023-04-06T08:27:11.578Z,50.22
2023-04-06T08:29:14.523Z,49.20
2023-04-06T08:31:17.454Z,49.20
2023-04-06T08:33:23.677Z,49.86
2023-04-06T08:35:28.420Z,49.09
2023-04-06T08:37:31.618Z,48.61
2023-04-06T08:39:34.857Z,48.95
2023-04-06T08:41:39.879Z,48.07
2023-04-06T08:43:48.311Z,47.76
2023-04-06T08:45:51.758Z,47.51
2023-04-06T08:47:56.283Z,47.55
2023-04-06T08:50:01.226Z,46.85
2023-04-06T08:52:04.115Z,46.80
2023-04-06T08:54:07.293Z,46.46
2023-04-06T08:56:12.331Z,46.74
2023-04-06T08:58:24.143Z,46.89
2023-04-06T09:00:38.894Z,47.07
2023-04-06T09:02:45.668Z,47.32
2023-04-06T09:04:50.552Z,47.01
2023-04-06T09:06:53.386Z,45.52
2023-04-06T09:08:57.563Z,46.14
2023-04-06T09:11:00.477Z,46.18
2023-04-06T09:13:07.647Z,45.87
2023-04-06T09:15:21.575Z,45.45
2023-04-06T09:17:30.696Z,44.91
2023-04-06T09:19:33.791Z,44.69
2023-04-06T09:21:36.829Z,44.79
2023-04-06T09:23:40.575Z,45.04
2023-04-06T09:25:43.674Z,45.60
2023-04-06T09:27:46.572Z,44.13
2023-04-06T09:29:49.532Z,43.49
2023-04-06T09:31:52.603Z,44.13
2023-04-06T09:33:57.552Z,43.56
2023-04-06T09:36:00.417Z,43.88
2023-04-06T09:38:13.183Z,44.19
2023-04-06T09:40:18.354Z,43.88
2023-04-06T09:42:27.756Z,42.49
2023-04-06T09:44:32.444Z,42.51
2023-04-06T09:46:50.416Z,41.84
2023-04-06T09:49:02.060Z,42.07
2023-04-06T09:51:07.195Z,42.03
2023-04-06T09:53:10.600Z,42.25
2023-04-06T09:55:19.411Z,41.07
2023-04-06T09:57:27.848Z,40.67
2023-04-06T09:59:39.934Z,39.92
2023-04-06T10:01:43.686Z,40.49
2023-04-06T10:03:54.261Z,40.51
2023-04-06T10:06:02.023Z,40.63
2023-04-06T10:08:08.913Z,40.52
2023-04-06T10:10:13.575Z,39.93
2023-04-06T10:12:17.784Z,39.60
2023-04-06T10:14:20.743Z,39.24
2023-04-06T10:16:25.845Z,40.36
2023-04-06T10:18:29.372Z,40.29
2023-04-06T10:20:40.796Z,39.10
2023-04-06T10:22:51.779Z,39.43
2023-04-06T10:24:54.780Z,38.03
2023-04-06T10:27:01.268Z,38.25
2023-04-06T10:29:05.926Z,38.60
2023-04-06T10:31:08.864Z,38.15
2023-04-06T10:33:15.628Z,37.93
2023-04-06T10:35:18.630Z,37.51
2023-04-06T10:37:22.314Z,37.35
2023-04-06T10:39:28.853Z,37.44
2023-04-06T10:41:36.206Z,37.11
2023-04-06T10:43:41.133Z,35.64
2023-04-06T10:45:44.434Z,34.94
2023-04-06T10:47:47.625Z,36.03
2023-04-06T10:49:50.717Z,35.49
2023-04-06T10:51:55.646Z,34.14
2023-04-06T10:54:00.311Z,34.69
2023-04-06T10:56:06.184Z,35.54
2023-04-06T10:58:09.231Z,35.98
2023-04-06T11:00:14.529Z,35.92
2023-04-06T11:02:26.378Z,35.75
2023-04-06T11:04:29.540Z,36.32
2023-04-06T11:06:33.454Z,35.07
2023-04-06T11:08:38.019Z,35.73
2023-04-06T11:10:41.035Z,34.62
2023-04-06T11:12:45.346Z,35.12
2023-04-06T11:14:55.489Z,34.30
2023-04-06T11:16:58.529Z,34.05
2023-04-06T11:19:04.683Z,33.11
2023-04-06T11:21:07.747Z,34.05
2023-04-06T11:23:11.025Z,33.85
2023-04-06T11:25:14.736Z,34.92
2023-04-06T11:27:19.189Z,35.24
2023-04-06T11:29:24.483Z,33.04
2023-04-06T11:31:27.765Z,33.36
2023-04-06T11:33:31.404Z,33.93
2023-04-06T11:35:34.894Z,33.48
2023-04-06T11:37:39.166Z,34.35
2023-04-06T11:39:48.751Z,33.27
2023-04-06T11:41:52.356Z,33.60
2023-04-06T11:43:57.079Z,32.97
2023-04-06T11:46:05.008Z,32.38
2023-04-06T11:48:08.062Z,33.00
2023-04-06T11:50:13.101Z,32.76
2023-04-06T11:52:17.417Z,32.36
2023-04-06T11:54:30.984Z,32.88
2023-04-06T11:56:33.881Z,32.74
2023-04-06T11:58:36.858Z,31.54
2023-04-06T12:00:39.869Z,31.78
2023-04-06T12:02:48.254Z,31.87
2023-04-06T12:04:51.370Z,31.67
2023-04-06T12:06:54.380Z,30.75
2023-04-06T12:08:57.376Z,30.60
2023-04-06T12:11:00.743Z,30.86
2023-04-06T12:13:03.770Z,31.80
2023-04-06T12:15:08.037Z,32.92
2023-04-06T12:17:11.211Z,33.73
2023-04-06T12:19:16.062Z,32.69
2023-04-06T12:21:19.123Z,32.48
2023-04-06T12:23:22.032Z,33.39
2023-04-06T12:25:25.113Z,33.09
2023-04-06T12:27:28.049Z,33.07
2023-04-06T12:29:31.120Z,33.04
2023-04-06T12:31:34.485Z,32.61
2023-04-06T12:33:37.485Z,31.84
2023-04-06T12:35:41.820Z,31.37
2023-04-06T12:37:44.876Z,32.42
2023-04-06T12:39:47.829Z,32.55
2023-04-06T12:41:50.961Z,31.93
2023-04-06T12:43:54.128Z,31.33
2023-04-06T12:45:57.108Z,30.40
2023-04-06T12:48:00.610Z,29.74
2023-04-06T12:50:03.775Z,30.16
2023-04-06T12:52:09.460Z,30.23
2023-04-06T12:54:12.834Z,30.91
2023-04-06T12:56:17.898Z,31.02
2023-04-06T12:58:21.005Z,30.66
2023-04-06T13:00:24.350Z,30.20
2023-04-06T13:02:28.041Z,30.28
2023-04-06T13:04:30.992Z,29.87
2023-04-06T13:06:36.197Z,29.71
2023-04-06T13:08:41.640Z,30.62
2023-04-06T13:10:45.593Z,30.41
2023-04-06T13:12:48.571Z,31.76
2023-04-06T13:14:53.490Z,31.25
2023-04-06T13:16:56.535Z,30.88
2023-04-06T13:18:59.479Z,31.71
2023-04-06T13:21:02.424Z,29.49
2023-04-06T13:23:05.438Z,28.69
2023-04-06T13:25:10.318Z,30.17
2023-04-06T13:27:13.527Z,30.57
2023-04-06T13:29:16.491Z,31.19
2023-04-06T13:31:19.454Z,29.20
2023-04-06T13:33:22.412Z,29.90
2023-04-06T13:35:25.410Z,28.96
2023-04-06T13:37:28.365Z,30.14
2023-04-06T13:39:31.470Z,29.80
2023-04-06T13:41:35.734Z,29.09
2023-04-06T13:43:38.661Z,30.56
2023-04-06T13:45:41.829Z,29.12
2023-04-06T13:47:44.822Z,29.20
2023-04-06T13:49:47.764Z,28.40
2023-04-06T13:51:50.682Z,29.53
2023-04-06T13:53:54.594Z,29.33
2023-04-06T13:55:57.576Z,28.10
2023-04-06T13:58:01.747Z,29.16
2023-04-06T14:00:07.397Z,29.15
2023-04-06T14:02:12.257Z,28.63
2023-04-06T14:04:15.268Z,29.14
2023-04-06T14:08:23.709Z,28.50
2023-04-06T14:10:28.456Z,29.25
2023-04-06T14:12:32.664Z,28.18
2023-04-06T14:14:36.814Z,28.56
2023-04-06T14:16:39.720Z,28.71
2023-04-06T14:18:43.551Z,27.49
2023-04-06T14:20:46.338Z,27.09
2023-04-06T14:22:50.394Z,27.95
2023-04-06T14:24:53.237Z,27.76
2023-04-06T14:26:56.953Z,27.79
2023-04-06T14:29:00.980Z,28.24
2023-04-06T14:31:12.941Z,28.58
2023-04-06T14:33:16.338Z,28.54
2023-04-06T14:35:19.097Z,27.18
2023-04-06T14:37:23.138Z,28.41
2023-04-06T14:39:26.076Z,28.79
2023-04-06T14:41:28.857Z,29.51
2023-04-06T14:43:31.949Z,29.92
2023-04-06T14:45:37.631Z,30.00
2023-04-06T14:47:41.874Z,29.18
2023-04-06T14:49:44.736Z,28.03
2023-04-06T14:51:47.578Z,29.38
2023-04-06T14:53:50.549Z,28.76
2023-04-06T14:55:53.678Z,29.39
2023-04-06T14:57:56.528Z,29.15
2023-04-06T14:59:59.298Z,29.14
2023-04-06T15:02:04.014Z,29.30
2023-04-06T15:04:09.201Z,29.49
2023-04-06T15:06:15.969Z,29.16
2023-04-06T15:08:21.417Z,29.10
2023-04-06T15:10:24.325Z,28.50
2023-04-06T15:12:27.429Z,29.62
2023-04-06T15:14:30.445Z,29.44
2023-04-06T15:16:33.637Z,28.30
2023-04-06T15:18:37.050Z,28.01
2023-04-06T15:20:42.917Z,28.39
2023-04-06T15:22:46.715Z,28.56
2023-04-06T15:24:49.514Z,29.63
2023-04-06T15:26:52.474Z,29.14
2023-04-06T15:28:55.358Z,28.74
2023-04-06T15:30:58.441Z,29.42
2023-04-06T15:33:03.658Z,29.04
2023-04-06T15:35:11.533Z,28.78
2023-04-06T15:37:15.668Z,29.56
2023-04-06T15:39:18.454Z,28.89
2023-04-06T15:41:21.424Z,29.14
2023-04-06T15:43:24.186Z,29.74
2023-04-06T15:45:27.266Z,29.48
2023-04-06T15:47:30.321Z,29.64
2023-04-06T15:49:33.304Z,29.62
2023-04-06T15:51:36.478Z,29.54
2023-04-06T15:53:40.738Z,29.69
2023-04-06T15:55:43.569Z,30.09
2023-04-06T15:57:46.419Z,29.79
2023-04-06T15:59:49.345Z,29.95
2023-04-06T16:01:52.245Z,30.15
2023-04-06T16:03:55.174Z,30.77
2023-04-06T16:06:08.060Z,30.85
2023-04-06T16:08:12.661Z,30.56
2023-04-06T16:10:16.844Z,30.97
2023-04-06T16:12:20.029Z,30.95
2023-04-06T16:14:22.816Z,31.01
2023-04-06T16:16:25.681Z,31.45
2023-04-06T16:18:28.570Z,31.41
2023-04-06T16:20:33.282Z,32.19
2023-04-06T16:22:36.539Z,32.04
2023-04-06T16:24:39.400Z,32.27
2023-04-06T16:26:44.343Z,32.49
2023-04-06T16:28:47.404Z,32.53
2023-04-06T16:30:50.244Z,33.16
2023-04-06T16:32:53.123Z,34.00
2023-04-06T16:34:56.020Z,34.36
2023-04-06T16:36:58.911Z,34.54
2023-04-06T16:39:02.925Z,34.46
2023-04-06T16:41:05.943Z,34.41
2023-04-06T16:43:10.681Z,34.10
2023-04-06T16:45:13.374Z,34.70
2023-04-06T16:47:16.536Z,36.19
2023-04-06T16:49:19.398Z,36.04
2023-04-06T16:51:22.211Z,37.00
2023-04-06T16:53:25.040Z,36.27
2023-04-06T16:55:27.863Z,35.68
2023-04-06T16:57:30.685Z,36.01
2023-04-06T16:59:35.997Z,35.61
2023-04-06T17:01:39.001Z,35.79
2023-04-06T17:03:44.177Z,35.72
2023-04-06T17:05:47.024Z,36.20
2023-04-06T17:07:49.972Z,36.56
2023-04-06T17:09:52.771Z,36.49
2023-04-06T17:11:56.750Z,36.62
2023-04-06T17:13:59.604Z,36.88
2023-04-06T17:16:04.139Z,36.40
2023-04-06T17:18:07.341Z,36.53
2023-04-06T17:20:10.608Z,36.44
2023-04-06T17:22:13.466Z,36.94
2023-04-06T17:24:16.313Z,36.91
2023-04-06T17:26:19.185Z,36.88
2023-04-06T17:28:22.078Z,37.63
2023-04-06T17:30:26.294Z,37.65
2023-04-06T17:32:30.507Z,38.13
2023-04-06T17:34:33.331Z,37.93
2023-04-06T17:36:36.210Z,38.01
2023-04-06T17:38:43.295Z,37.96
2023-04-06T17:40:46.147Z,38.17
2023-04-06T17:42:48.972Z,38.13
2023-04-06T17:44:53.224Z,38.13
2023-04-06T17:46:56.514Z,38.51
2023-04-06T17:49:00.621Z,39.06
2023-04-06T17:51:03.814Z,39.03
2023-04-06T17:53:06.921Z,39.91
2023-04-06T17:55:10.179Z,40.32
2023-04-06T17:57:12.995Z,39.79
2023-04-06T17:59:16.051Z,40.65
2023-04-06T18:01:19.365Z,40.28
2023-04-06T18:03:22.305Z,40.24
2023-04-06T18:05:27.037Z,40.31
2023-04-06T18:07:30.268Z,41.06
2023-04-06T18:09:33.257Z,41.45
2023-04-06T18:11:36.377Z,42.36
2023-04-06T18:13:40.092Z,42.25
2023-04-06T18:15:43.357Z,42.81
2023-04-06T18:17:47.178Z,43.19
2023-04-06T18:19:50.056Z,43.42
2023-04-06T18:21:54.239Z,44.32
2023-04-06T18:23:57.046Z,45.15
2023-04-06T18:26:00.616Z,45.48
2023-04-06T18:28:03.556Z,45.95
2023-04-06T18:30:07.582Z,46.21
2023-04-06T18:32:10.526Z,46.95
2023-04-06T18:34:13.384Z,47.22
2023-04-06T18:36:16.307Z,48.38
2023-04-06T18:38:21.295Z,50.25
2023-04-06T18:40:35.485Z,51.31
2023-04-06T18:42:38.819Z,52.33
2023-04-06T18:44:41.695Z,52.71
2023-04-06T18:46:44.724Z,54.42
2023-04-06T18:48:47.754Z,55.06
2023-04-06T18:50:54.076Z,55.10
2023-04-06T18:52:57.064Z,54.25
2023-04-06T18:55:01.337Z,55.76
2023-04-06T18:57:04.826Z,56.11
2023-04-06T18:59:07.802Z,56.82
2023-04-06T19:01:10.756Z,57.59
2023-04-06T19:03:13.686Z,57.49
2023-04-06T19:05:16.834Z,57.06
2023-04-06T19:07:19.765Z,57.53
2023-04-06T19:09:22.574Z,56.91
2023-04-06T19:11:27.348Z,57.72
2023-04-06T19:13:30.168Z,58.67
2023-04-06T19:15:33.173Z,57.77
2023-04-06T19:17:37.873Z,57.71
2023-04-06T19:19:40.598Z,58.86
2023-04-06T19:21:43.436Z,59.22
2023-04-06T19:23:47.793Z,58.18
2023-04-06T19:25:52.375Z,58.80
2023-04-06T19:27:57.486Z,59.68
2023-04-06T19:30:00.645Z,61.34
2023-04-06T19:32:03.511Z,59.90
2023-04-06T19:34:06.887Z,61.20
2023-04-06T19:36:10.396Z,61.74
2023-04-06T19:38:13.205Z,61.99
2023-04-06T19:40:16.212Z,62.29
2023-04-06T19:42:21.437Z,62.60
2023-04-06T19:44:25.843Z,63.39
2023-04-06T19:46:29.046Z,63.59
2023-04-06T19:48:33.607Z,63.81
2023-04-06T19:50:36.545Z,64.09
2023-04-06T19:52:39.536Z,64.19
2023-04-06T19:54:42.752Z,64.95
2023-04-06T19:56:45.609Z,64.58
2023-04-06T19:58:48.362Z,65.08
2023-04-06T20:00:52.592Z,65.15
2023-04-06T20:02:55.677Z,65.46
2023-04-06T20:04:58.533Z,66.30
2023-04-06T20:07:01.416Z,66.41
2023-04-06T20:09:04.590Z,66.70
2023-04-06T20:11:08.418Z,67.28
2023-04-06T20:13:11.294Z,67.53
2023-04-06T20:15:14.052Z,67.82
2023-04-06T20:17:18.236Z,68.26
2023-04-06T20:19:21.052Z,68.05
2023-04-06T20:21:23.923Z,68.15
2023-04-06T20:23:27.107Z,68.25
2023-04-06T20:25:29.940Z,68.66
2023-04-06T20:27:32.778Z,68.38
2023-04-06T20:29:35.742Z,68.33
2023-04-06T20:31:38.630Z,68.30
2023-04-06T20:33:42.863Z,68.89
2023-04-06T20:35:45.742Z,68.92
2023-04-06T20:37:48.570Z,69.17
2023-04-06T20:39:51.617Z,68.77
2023-04-06T20:41:54.732Z,69.57
2023-04-06T20:43:58.124Z,69.46
2023-04-06T20:46:02.186Z,69.67
2023-04-06T20:48:05.379Z,69.64
2023-04-06T20:50:10.416Z,69.55
2023-04-06T20:52:13.541Z,69.56
2023-04-06T20:54:16.753Z,70.01
2023-04-06T20:56:20.110Z,69.94
2023-04-06T20:58:22.877Z,70.07
2023-04-06T21:00:26.016Z,69.71
2023-04-06T21:02:29.111Z,70.12
2023-04-06T21:04:32.190Z,70.10
2023-04-06T21:06:36.648Z,70.41
2023-04-06T21:08:39.910Z,70.87
2023-04-06T21:10:42.712Z,70.67
2023-04-06T21:12:45.605Z,71.15
2023-04-06T21:14:48.453Z,71.42
2023-04-06T21:16:51.846Z,71.92
2023-04-06T21:18:54.719Z,71.96
2023-04-06T21:20:57.506Z,71.72
2023-04-06T21:23:01.826Z,71.21
2023-04-06T21:25:05.233Z,71.48
2023-04-06T21:27:08.295Z,71.10
2023-04-06T21:29:11.026Z,71.31
2023-04-06T21:31:16.410Z,71.45
2023-04-06T21:33:19.443Z,71.61
2023-04-06T21:35:22.207Z,71.52
2023-04-06T21:37:25.010Z,71.97
2023-04-06T21:39:29.298Z,72.13
2023-04-06T21:41:32.709Z,71.90
2023-04-06T21:43:35.708Z,71.73
2023-04-06T21:45:40.245Z,71.76
2023-04-06T21:47:43.062Z,72.50
2023-04-06T21:49:45.863Z,72.33
2023-04-06T21:51:48.724Z,72.31
2023-04-06T21:53:53.210Z,72.52
2023-04-06T21:55:57.335Z,72.39
2023-04-06T21:58:00.191Z,72.48
2023-04-06T22:00:03.369Z,72.61
2023-04-06T22:02:06.208Z,72.22
2023-04-06T22:04:09.209Z,72.02
2023-04-06T22:06:12.229Z,71.70
2023-04-06T22:08:25.376Z,72.12
2023-04-06T22:10:33.160Z,72.23
2023-04-06T22:12:37.322Z,72.22
2023-04-06T22:14:40.371Z,72.36
2023-04-06T22:16:43.295Z,72.51
2023-04-06T22:18:46.654Z,72.66
2023-04-06T22:20:49.509Z,73.27
2023-04-06T22:22:52.337Z,72.75
2023-04-06T22:24:56.669Z,73.16
2023-04-06T22:26:59.485Z,72.89
2023-04-06T22:29:03.872Z,73.39
2023-04-06T22:31:06.811Z,72.80
2023-04-06T22:33:09.728Z,72.99
2023-04-06T22:35:12.544Z,73.12
2023-04-06T22:37:15.453Z,73.25
2023-04-06T22:39:18.303Z,73.43
2023-04-06T22:41:21.136Z,73.73
2023-04-06T22:43:23.930Z,73.69
2023-04-06T22:45:28.165Z,73.88
2023-04-06T22:47:31.012Z,73.82
2023-04-06T22:49:33.837Z,73.98
2023-04-06T22:51:36.624Z,73.95
2023-04-06T22:53:39.421Z,73.43
2023-04-06T22:55:42.282Z,73.44
2023-04-06T22:57:45.284Z,73.74
2023-04-06T22:59:48.083Z,73.55
2023-04-06T23:01:52.361Z,73.31
2023-04-06T23:03:55.234Z,73.63
2023-04-06T23:05:58.118Z,73.45
2023-04-06T23:08:00.933Z,73.47
2023-04-06T23:10:04.034Z,73.20
2023-04-06T23:12:07.216Z,73.71
2023-04-06T23:14:10.042Z,73.73
2023-04-06T23:16:12.879Z,73.99
2023-04-06T23:18:17.105Z,73.86
2023-04-06T23:20:20.393Z,73.78
2023-04-06T23:22:23.164Z,73.81
2023-04-06T23:24:27.474Z,73.86
2023-04-06T23:26:30.551Z,73.63
2023-04-06T23:28:33.345Z,73.79
2023-04-06T23:30:36.279Z,73.85
2023-04-06T23:32:39.212Z,73.78
2023-04-06T23:34:43.522Z,73.81
2023-04-06T23:36:46.316Z,73.56
2023-04-06T23:38:49.095Z,73.75
2023-04-06T23:40:51.999Z,73.27
2023-04-06T23:42:54.839Z,73.16
2023-04-06T23:44:57.680Z,74.09
2023-04-06T23:47:00.504Z,73.91
2023-04-06T23:49:03.339Z,73.94
2023-04-06T23:51:07.653Z,74.22
2023-04-06T23:53:10.483Z,74.13
2023-04-06T23:55:13.769Z,73.82
2023-04-06T23:57:16.579Z,73.57
2023-04-06T23:59:19.500Z,73.38
